createdAt,value
2023-02-18T00:01:57.585Z,64.80
2023-02-18T00:04:26.171Z,67.43
2023-02-18T00:06:54.467Z,63.92
2023-02-18T00:09:23.203Z,63.60
2023-02-18T00:11:51.883Z,64.20
2023-02-18T00:14:20.662Z,62.70
2023-02-18T00:16:49.158Z,62.45
2023-02-18T00:19:19.492Z,58.47
2023-02-18T00:21:48.162Z,60.72
2023-02-18T00:24:17.086Z,60.38
2023-02-18T00:26:46.375Z,58.42
2023-02-18T00:29:15.092Z,57.55
2023-02-18T00:31:43.754Z,57.28
2023-02-18T00:34:13.434Z,57.65
2023-02-18T00:36:41.939Z,56.88
2023-02-18T00:39:11.486Z,56.65
2023-02-18T00:42:06.245Z,58.45
2023-02-18T00:44:35.001Z,52.13
2023-02-18T00:47:03.515Z,53.63
2023-02-18T00:49:32.816Z,53.83
2023-02-18T00:52:01.172Z,52.78
2023-02-18T00:54:29.968Z,52.53
2023-02-18T00:56:58.434Z,53.50
2023-02-18T00:59:28.042Z,52.30
2023-02-18T01:01:56.582Z,52.03
2023-02-18T01:04:25.559Z,54.40
2023-02-18T01:06:54.066Z,52.75
2023-02-18T01:09:25.758Z,53.17
2023-02-18T01:11:54.137Z,51.33
2023-02-18T01:14:22.885Z,50.20
2023-02-18T01:16:51.768Z,48.88
2023-02-18T01:19:20.641Z,49.22
2023-02-18T01:21:49.102Z,48.78
2023-02-18T01:24:17.858Z,48.55
2023-02-18T01:26:46.348Z,49.50
2023-02-18T01:29:17.308Z,47.60
2023-02-18T01:31:45.982Z,48.20
2023-02-18T01:34:15.560Z,50.75
2023-02-18T01:36:44.107Z,47.53
2023-02-18T01:39:12.935Z,47.90
2023-02-18T01:41:41.337Z,47.80
2023-02-18T01:44:26.114Z,47.75
2023-02-18T01:46:54.640Z,47.17
2023-02-18T01:49:33.510Z,47.05
2023-02-18T01:52:12.572Z,47.45
2023-02-18T01:54:55.723Z,49.72
2023-02-18T01:57:33.456Z,49.77
2023-02-18T02:00:12.409Z,46.13
2023-02-18T02:02:46.444Z,48.20
2023-02-18T02:05:15.840Z,47.05
2023-02-18T02:07:45.074Z,47.67
2023-02-18T02:10:14.801Z,47.15
2023-02-18T02:12:54.861Z,45.40
2023-02-18T02:15:44.503Z,47.03
2023-02-18T02:18:21.702Z,45.03
2023-02-18T02:21:27.300Z,46.03
2023-02-18T02:24:10.661Z,45.90
2023-02-18T02:26:49.589Z,45.40
2023-02-18T02:30:01.543Z,45.97
2023-02-18T02:33:00.621Z,45.00
2023-02-18T02:35:37.560Z,46.40
2023-02-18T02:38:20.254Z,45.60
2023-02-18T02:41:20.066Z,44.78
2023-02-18T02:44:20.432Z,43.92
2023-02-18T02:46:54.164Z,44.22
2023-02-18T02:49:58.500Z,44.78
2023-02-18T02:52:33.923Z,44.42
2023-02-18T02:55:09.312Z,45.38
2023-02-18T02:57:46.854Z,44.33
2023-02-18T03:00:40.148Z,42.75
2023-02-18T03:03:57.385Z,44.58
2023-02-18T03:06:28.971Z,44.13
2023-02-18T03:09:05.567Z,44.42
2023-02-18T03:12:11.655Z,41.58
2023-02-18T03:15:04.226Z,42.38
2023-02-18T03:17:57.556Z,44.40
2023-02-18T03:20:41.952Z,44.00
2023-02-18T03:23:14.257Z,42.05
2023-02-18T03:25:42.697Z,43.83
2023-02-18T03:28:21.911Z,42.72
2023-02-18T03:30:53.630Z,43.22
2023-02-18T03:33:38.250Z,42.25
2023-02-18T03:36:07.755Z,42.95
2023-02-18T03:38:47.691Z,41.70
2023-02-18T03:41:16.103Z,42.78
2023-02-18T03:43:56.612Z,41.58
2023-02-18T03:46:25.117Z,42.28
2023-02-18T03:48:53.963Z,43.97
2023-02-18T03:51:23.059Z,42.67
2023-02-18T03:53:51.753Z,41.33
2023-02-18T03:56:20.760Z,44.33
2023-02-18T03:58:49.577Z,43.78
2023-02-18T04:01:18.025Z,46.35
2023-02-18T04:03:46.744Z,43.90
2023-02-18T04:06:15.122Z,45.03
2023-02-18T04:08:44.123Z,45.33
2023-02-18T04:11:12.583Z,46.88
2023-02-18T04:13:41.301Z,49.72
2023-02-18T04:16:09.965Z,51.10
2023-02-18T04:18:38.894Z,51.58
2023-02-18T04:21:07.378Z,50.35
2023-02-18T04:23:36.241Z,53.08
2023-02-18T04:26:04.940Z,52.65
2023-02-18T04:28:33.784Z,56.45
2023-02-18T04:31:02.315Z,55.25
2023-02-18T04:33:31.169Z,55.80
2023-02-18T04:35:59.610Z,56.95
2023-02-18T04:38:28.872Z,57.22
2023-02-18T04:40:57.395Z,55.45
2023-02-18T04:43:26.741Z,59.88
2023-02-18T04:45:55.481Z,59.65
2023-02-18T04:48:24.503Z,59.33
2023-02-18T04:50:53.173Z,60.42
2023-02-18T04:53:22.083Z,59.47
2023-02-18T04:55:51.941Z,61.40
2023-02-18T04:58:21.356Z,60.55
2023-02-18T05:00:50.025Z,60.20
2023-02-18T05:03:18.598Z,60.53
2023-02-18T05:05:46.974Z,60.47
2023-02-18T05:08:16.562Z,58.45
2023-02-18T05:10:45.006Z,57.72
2023-02-18T05:13:13.889Z,57.58
2023-02-18T05:15:42.396Z,59.58
2023-02-18T05:18:11.118Z,58.92
2023-02-18T05:20:39.525Z,58.83
2023-02-18T05:23:08.325Z,57.42
2023-02-18T05:25:36.800Z,55.42
2023-02-18T05:28:05.581Z,57.72
2023-02-18T05:30:33.988Z,58.83
2023-02-18T05:33:02.769Z,58.63
2023-02-18T05:35:31.148Z,57.20
2023-02-18T05:37:59.996Z,56.15
2023-02-18T05:40:28.476Z,55.80
2023-02-18T05:42:57.208Z,55.22
2023-02-18T05:45:25.711Z,55.13
2023-02-18T05:47:54.433Z,54.97
2023-02-18T05:50:23.098Z,54.13
2023-02-18T05:52:52.020Z,52.75
2023-02-18T05:55:20.403Z,51.65
2023-02-18T05:57:49.164Z,51.72
2023-02-18T06:00:18.446Z,50.35
2023-02-18T06:02:47.222Z,52.35
2023-02-18T06:05:15.646Z,52.42
2023-02-18T06:07:44.351Z,50.28
2023-02-18T06:10:12.869Z,52.25
2023-02-18T06:12:41.587Z,49.40
2023-02-18T06:15:10.135Z,53.70
2023-02-18T06:17:38.760Z,50.45
2023-02-18T06:20:08.057Z,50.17
2023-02-18T06:22:36.739Z,49.15
2023-02-18T06:25:05.377Z,51.95
2023-02-18T06:27:34.166Z,51.50
2023-02-18T06:30:02.530Z,49.25
2023-02-18T06:32:31.285Z,50.80
2023-02-18T06:34:59.616Z,50.47
2023-02-18T06:37:28.293Z,50.25
2023-02-18T06:39:56.942Z,49.15
2023-02-18T06:42:25.693Z,50.10
2023-02-18T06:44:54.032Z,51.17
2023-02-18T06:47:23.101Z,48.75
2023-02-18T06:49:51.452Z,50.72
2023-02-18T06:52:20.212Z,51.25
2023-02-18T06:54:48.679Z,49.78
2023-02-18T06:57:17.390Z,49.00
2023-02-18T06:59:45.840Z,48.50
2023-02-18T07:02:14.672Z,48.53
2023-02-18T07:04:43.193Z,49.72
2023-02-18T07:07:11.992Z,48.05
2023-02-18T07:09:40.500Z,47.63
2023-02-18T07:12:09.263Z,48.17
2023-02-18T07:14:37.677Z,46.85
2023-02-18T07:17:06.484Z,47.05
2023-02-18T07:19:35.038Z,49.22
2023-02-18T07:22:03.777Z,49.92
2023-02-18T07:24:32.258Z,47.90
2023-02-18T07:27:01.117Z,50.38
2023-02-18T07:29:29.547Z,47.95
2023-02-18T07:31:58.231Z,47.88
2023-02-18T07:34:26.617Z,48.80
2023-02-18T07:36:55.458Z,50.60
2023-02-18T07:39:23.806Z,50.03
2023-02-18T07:41:52.590Z,51.75
2023-02-18T07:44:21.201Z,51.97
2023-02-18T07:46:50.167Z,49.72
2023-02-18T07:49:18.677Z,51.97
2023-02-18T07:51:51.002Z,53.63
2023-02-18T07:54:19.518Z,55.03
2023-02-18T07:56:48.300Z,54.88
2023-02-18T07:59:16.850Z,51.25
2023-02-18T08:01:45.645Z,57.13
2023-02-18T08:04:15.630Z,53.42
2023-02-18T08:06:46.877Z,54.13
2023-02-18T08:09:16.267Z,56.45
2023-02-18T08:11:45.248Z,57.47
2023-02-18T08:14:13.761Z,54.42
2023-02-18T08:16:42.617Z,57.25
2023-02-18T08:19:11.316Z,56.58
2023-02-18T08:21:40.164Z,56.88
2023-02-18T08:24:08.783Z,56.70
2023-02-18T08:26:37.768Z,55.40
2023-02-18T08:29:06.405Z,56.58
2023-02-18T08:31:36.623Z,56.67
2023-02-18T08:34:05.186Z,57.17
2023-02-18T08:36:33.974Z,56.35
2023-02-18T08:39:02.530Z,55.60
2023-02-18T08:41:31.324Z,56.67
2023-02-18T08:43:59.813Z,55.97
2023-02-18T08:46:35.261Z,58.42
2023-02-18T08:49:05.667Z,53.92
2023-02-18T08:51:34.649Z,57.28
2023-02-18T08:54:03.163Z,57.25
2023-02-18T08:56:32.812Z,56.50
2023-02-18T08:59:02.087Z,56.13
2023-02-18T09:01:30.569Z,55.17
2023-02-18T09:03:59.496Z,55.13
2023-02-18T09:06:28.064Z,59.25
2023-02-18T09:08:57.078Z,57.47
2023-02-18T09:11:25.376Z,60.10
2023-02-18T09:13:54.031Z,60.00
2023-02-18T09:16:25.946Z,59.30
2023-02-18T09:18:55.024Z,61.78
2023-02-18T09:21:23.559Z,60.00
2023-02-18T09:23:52.753Z,61.88
2023-02-18T09:26:23.189Z,57.72
2023-02-18T09:28:52.824Z,57.70
2023-02-18T09:31:25.380Z,56.72
2023-02-18T09:34:03.610Z,58.05
2023-02-18T09:36:32.258Z,56.50
2023-02-18T09:39:01.157Z,57.10
2023-02-18T09:41:44.162Z,62.05
2023-02-18T09:47:04.207Z,57.88
2023-02-18T09:49:37.150Z,57.25
2023-02-18T09:52:30.445Z,59.92
2023-02-18T09:57:41.052Z,59.25
2023-02-18T10:00:24.400Z,58.80
2023-02-18T10:03:07.058Z,58.30
2023-02-18T10:05:36.166Z,66.97
2023-02-18T10:08:19.858Z,74.20
2023-02-18T10:10:48.866Z,78.97
2023-02-18T10:13:23.919Z,79.70
2023-02-18T10:15:53.350Z,75.47
2023-02-18T10:18:27.519Z,72.97
2023-02-18T10:21:30.887Z,72.88
2023-02-18T10:24:27.073Z,74.53
2023-02-18T10:26:57.025Z,74.47
2023-02-18T10:29:25.813Z,80.13
2023-02-18T10:32:06.799Z,74.65
2023-02-18T10:34:49.871Z,76.03
2023-02-18T10:40:32.202Z,75.70
2023-02-18T10:43:19.961Z,71.35
2023-02-18T10:46:13.599Z,70.95
2023-02-18T10:49:01.531Z,70.82
2023-02-18T10:51:34.744Z,69.00
2023-02-18T10:54:03.760Z,69.65
2023-02-18T10:56:51.191Z,73.85
2023-02-18T10:59:36.154Z,68.70
2023-02-18T11:02:16.448Z,69.75
2023-02-18T11:04:46.487Z,68.55
2023-02-18T11:07:31.843Z,67.57
2023-02-18T11:10:18.939Z,68.72
2023-02-18T11:12:50.400Z,65.85
2023-02-18T11:15:23.740Z,67.05
2023-02-18T11:17:55.428Z,66.20
2023-02-18T11:20:25.886Z,63.58
2023-02-18T11:22:59.958Z,66.80
2023-02-18T11:25:34.079Z,64.72
2023-02-18T11:28:29.232Z,65.88
2023-02-18T11:31:00.636Z,65.60
2023-02-18T11:33:57.492Z,67.25
2023-02-18T11:36:36.410Z,65.30
2023-02-18T11:39:24.688Z,66.88
2023-02-18T11:42:03.757Z,67.10
2023-02-18T11:44:43.319Z,67.38
2023-02-18T11:47:15.021Z,67.55
2023-02-18T11:49:44.537Z,69.20
2023-02-18T11:52:34.973Z,70.78
2023-02-18T11:55:22.833Z,67.10
2023-02-18T11:58:05.841Z,68.68
2023-02-18T12:00:44.342Z,69.28
2023-02-18T12:03:58.928Z,69.25
2023-02-18T12:07:05.714Z,69.47
2023-02-18T12:09:45.588Z,68.68
2023-02-18T12:12:18.665Z,68.63
2023-02-18T12:14:47.474Z,69.40
2023-02-18T12:17:36.706Z,68.00
2023-02-18T12:20:20.526Z,69.40
2023-02-18T12:25:55.326Z,65.13
2023-02-18T12:28:42.109Z,68.00
2023-02-18T12:31:18.960Z,68.47
2023-02-18T12:33:47.366Z,73.53
2023-02-18T12:36:55.775Z,68.32
2023-02-18T12:40:17.618Z,70.20
2023-02-18T12:42:58.396Z,70.68
2023-02-18T12:45:44.647Z,70.20
2023-02-18T12:48:13.355Z,69.10
2023-02-18T12:50:44.865Z,68.43
2023-02-18T12:53:41.789Z,70.63
2023-02-18T12:56:40.506Z,68.50
2023-02-18T12:59:40.451Z,67.68
2023-02-18T13:02:55.031Z,69.97
2023-02-18T13:05:39.489Z,67.05
2023-02-18T13:08:40.127Z,71.63
2023-02-18T13:11:42.888Z,71.05
2023-02-18T13:14:19.323Z,65.60
2023-02-18T13:16:52.820Z,69.88
2023-02-18T13:19:21.679Z,66.32
2023-02-18T13:21:53.805Z,68.60
2023-02-18T13:24:35.155Z,66.15
2023-02-18T13:27:09.805Z,68.85
2023-02-18T13:30:18.878Z,64.85
2023-02-18T13:33:09.228Z,68.32
2023-02-18T13:36:06.606Z,64.82
2023-02-18T13:38:51.467Z,67.55
2023-02-18T13:41:20.499Z,63.45
2023-02-18T13:43:49.477Z,60.60
2023-02-18T13:46:22.969Z,65.90
2023-02-18T13:49:04.280Z,63.22
2023-02-18T13:51:46.581Z,64.30
2023-02-18T13:54:40.180Z,61.03
2023-02-18T13:57:22.272Z,60.85
2023-02-18T14:00:04.490Z,74.40
2023-02-18T14:02:35.813Z,62.05
2023-02-18T14:05:07.714Z,64.85
2023-02-18T14:07:36.172Z,63.47
2023-02-18T14:10:30.430Z,62.30
2023-02-18T14:12:59.033Z,60.72
2023-02-18T14:15:27.926Z,59.75
2023-02-18T14:18:25.151Z,60.70
2023-02-18T14:21:04.240Z,60.05
2023-02-18T14:23:39.706Z,58.35
2023-02-18T14:26:14.068Z,59.10
2023-02-18T14:28:45.723Z,58.22
2023-02-18T14:31:17.136Z,57.20
2023-02-18T14:34:31.070Z,57.35
2023-02-18T14:37:54.069Z,57.83
2023-02-18T14:40:45.211Z,58.30
2023-02-18T14:43:34.246Z,58.00
2023-02-18T14:46:43.053Z,56.83
2023-02-18T14:49:46.923Z,57.17
2023-02-18T14:53:10.901Z,54.50
2023-02-18T14:58:20.315Z,56.50
2023-02-18T15:00:49.356Z,62.80
2023-02-18T15:03:20.535Z,62.42
2023-02-18T15:05:53.529Z,58.47
2023-02-18T15:08:24.143Z,60.40
2023-02-18T15:10:57.401Z,59.70
2023-02-18T15:13:44.464Z,58.58
2023-02-18T15:16:34.038Z,59.80
2023-02-18T15:19:07.766Z,57.90
2023-02-18T15:21:40.713Z,59.35
2023-02-18T15:24:46.942Z,58.60
2023-02-18T15:27:28.591Z,58.25
2023-02-18T15:30:13.174Z,59.40
2023-02-18T15:32:54.952Z,60.13
2023-02-18T15:35:29.357Z,60.90
2023-02-18T15:38:00.220Z,55.28
2023-02-18T15:40:33.411Z,57.85
2023-02-18T15:43:04.222Z,56.65
2023-02-18T15:45:41.917Z,56.83
2023-02-18T15:48:33.157Z,58.35
2023-02-18T15:51:17.034Z,58.03
2023-02-18T15:53:49.642Z,57.22
2023-02-18T15:56:38.202Z,59.00
2023-02-18T15:59:29.008Z,56.80
2023-02-18T16:02:13.017Z,57.83
2023-02-18T16:04:42.717Z,57.33
2023-02-18T16:07:26.495Z,59.85
2023-02-18T16:10:21.790Z,56.40
2023-02-18T16:12:55.649Z,60.65
2023-02-18T16:15:30.444Z,57.13
2023-02-18T16:18:01.733Z,59.25
2023-02-18T16:20:33.661Z,56.72
2023-02-18T16:23:13.094Z,57.35
2023-02-18T16:25:43.482Z,57.80
2023-02-18T16:28:22.905Z,55.40
2023-02-18T16:30:51.849Z,56.13
2023-02-18T16:33:20.230Z,53.90
2023-02-18T16:35:50.734Z,54.28
2023-02-18T16:38:22.287Z,53.25
2023-02-18T16:40:51.322Z,52.05
2023-02-18T16:43:27.096Z,52.05
2023-02-18T16:46:05.676Z,51.90
2023-02-18T16:48:41.023Z,51.00
2023-02-18T16:51:23.791Z,50.30
2023-02-18T16:53:52.327Z,52.30
2023-02-18T16:56:28.713Z,50.70
2023-02-18T16:58:57.652Z,49.72
2023-02-18T17:01:38.537Z,52.28
2023-02-18T17:04:07.368Z,52.15
2023-02-18T17:06:36.315Z,50.60
2023-02-18T17:09:17.301Z,49.53
2023-02-18T17:11:46.671Z,52.20
2023-02-18T17:14:18.150Z,51.72
2023-02-18T17:16:48.107Z,52.47
2023-02-18T17:19:17.007Z,50.30
2023-02-18T17:21:48.296Z,53.22
2023-02-18T17:24:18.383Z,49.00
2023-02-18T17:26:47.095Z,52.03
2023-02-18T17:29:15.787Z,50.78
2023-02-18T17:31:47.308Z,51.80
2023-02-18T17:34:23.652Z,52.67
2023-02-18T17:36:52.336Z,50.90
2023-02-18T17:39:20.977Z,51.97
2023-02-18T17:41:49.754Z,52.80
2023-02-18T17:44:20.702Z,50.97
2023-02-18T17:46:52.636Z,51.30
2023-02-18T17:49:22.569Z,51.22
2023-02-18T17:51:52.997Z,54.00
2023-02-18T17:54:25.747Z,51.95
2023-02-18T17:56:56.232Z,52.78
2023-02-18T17:59:24.689Z,51.05
2023-02-18T18:01:53.503Z,54.63
2023-02-18T18:04:22.182Z,54.67
2023-02-18T18:06:51.385Z,54.72
2023-02-18T18:09:19.790Z,51.72
2023-02-18T18:11:48.812Z,54.00
2023-02-18T18:14:17.246Z,51.90
2023-02-18T18:16:46.377Z,52.75
2023-02-18T18:19:14.965Z,54.08
2023-02-18T18:21:45.658Z,55.40
2023-02-18T18:24:14.150Z,52.63
2023-02-18T18:26:43.109Z,55.50
2023-02-18T18:29:11.606Z,56.45
2023-02-18T18:31:40.617Z,59.75
2023-02-18T18:34:09.972Z,57.67
2023-02-18T18:36:38.999Z,55.53
2023-02-18T18:39:07.500Z,59.35
2023-02-18T18:41:36.378Z,56.63
2023-02-18T18:44:05.182Z,61.13
2023-02-18T18:46:34.024Z,60.67
2023-02-18T18:49:02.760Z,59.83
2023-02-18T18:51:31.929Z,62.53
2023-02-18T18:54:00.363Z,61.58
2023-02-18T18:56:29.120Z,64.15
2023-02-18T18:58:57.682Z,61.13
2023-02-18T19:01:27.845Z,64.00
2023-02-18T19:03:56.463Z,64.72
2023-02-18T19:06:25.224Z,63.13
2023-02-18T19:08:53.630Z,62.80
2023-02-18T19:11:22.364Z,62.85
2023-02-18T19:13:50.760Z,63.65
2023-02-18T19:16:22.460Z,63.88
2023-02-18T19:18:50.962Z,65.28
2023-02-18T19:21:19.682Z,66.60
2023-02-18T19:23:48.141Z,62.50
2023-02-18T19:26:17.300Z,66.32
2023-02-18T19:28:46.375Z,64.05
2023-02-18T19:31:15.616Z,64.50
2023-02-18T19:33:47.056Z,62.40
2023-02-18T19:36:16.983Z,65.13
2023-02-18T19:38:46.187Z,62.47
2023-02-18T19:41:17.216Z,61.88
2023-02-18T19:43:46.775Z,63.90
2023-02-18T19:46:17.636Z,64.53
2023-02-18T19:48:50.789Z,65.75
2023-02-18T19:51:20.884Z,62.17
2023-02-18T19:53:49.321Z,64.38
2023-02-18T19:56:18.412Z,66.18
2023-02-18T19:58:47.030Z,61.13
2023-02-18T20:01:17.146Z,61.05
2023-02-18T20:03:45.633Z,61.53
2023-02-18T20:06:18.834Z,65.72
2023-02-18T20:08:47.460Z,63.78
2023-02-18T20:11:16.480Z,63.38
2023-02-18T20:13:44.922Z,59.60
2023-02-18T20:16:13.775Z,63.83
2023-02-18T20:18:42.301Z,61.95
2023-02-18T20:21:12.350Z,63.05
2023-02-18T20:23:41.548Z,63.30
2023-02-18T20:26:11.282Z,64.05
2023-02-18T20:28:39.659Z,65.55
2023-02-18T20:31:11.610Z,63.30
2023-02-18T20:33:42.380Z,66.03
2023-02-18T20:36:11.706Z,63.28
2023-02-18T20:38:40.309Z,63.20
2023-02-18T20:41:14.751Z,65.10
2023-02-18T20:59:36.889Z,63.72
2023-02-18T21:02:05.809Z,63.90
2023-02-18T21:04:34.422Z,63.55
2023-02-18T21:07:03.382Z,64.57
2023-02-18T21:09:31.923Z,62.85
2023-02-18T21:12:00.930Z,63.60
2023-02-18T21:14:29.377Z,63.25
2023-02-18T21:16:58.208Z,63.17
2023-02-18T21:19:26.987Z,62.95
2023-02-18T21:21:57.357Z,61.58
2023-02-18T21:24:25.934Z,63.53
2023-02-18T21:26:54.802Z,63.25
2023-02-18T21:29:23.383Z,64.55
2023-02-18T21:31:52.525Z,64.75
2023-02-18T21:34:23.199Z,65.03
2023-02-18T21:36:52.041Z,64.13
2023-02-18T21:39:20.482Z,62.50
2023-02-18T21:41:49.387Z,65.45
2023-02-18T21:44:17.914Z,66.28
2023-02-18T21:46:46.780Z,66.35
2023-02-18T21:49:15.912Z,66.18
2023-02-18T21:51:57.671Z,66.93
2023-02-18T21:54:36.237Z,66.07
2023-02-18T21:57:05.905Z,65.53
2023-02-18T21:59:34.994Z,66.03
2023-02-18T22:02:04.251Z,64.80
2023-02-18T22:04:34.115Z,66.65
2023-02-18T22:07:03.845Z,66.03
2023-02-18T22:09:32.360Z,62.38
2023-02-18T22:12:01.217Z,67.63
2023-02-18T22:14:29.979Z,65.90
2023-02-18T22:16:59.129Z,66.38
2023-02-18T22:19:28.901Z,67.57
2023-02-18T22:21:57.926Z,64.70
2023-02-18T22:24:27.676Z,66.18
2023-02-18T22:27:02.382Z,65.43
2023-02-18T22:29:31.650Z,66.85
2023-02-18T22:32:00.763Z,65.18
2023-02-18T22:34:29.486Z,65.13
2023-02-18T22:36:58.384Z,64.82
2023-02-18T22:39:26.972Z,68.68
2023-02-18T22:41:55.807Z,67.35
2023-02-18T22:44:26.402Z,64.32
2023-02-18T22:46:56.531Z,66.25
2023-02-18T22:49:25.695Z,67.75
2023-02-18T22:51:54.848Z,66.63
2023-02-18T22:54:23.372Z,64.13
2023-02-18T22:56:53.329Z,64.50
2023-02-18T22:59:21.885Z,65.85
2023-02-18T23:01:53.271Z,65.03
2023-02-18T23:04:22.106Z,66.40
2023-02-18T23:06:51.009Z,63.30
2023-02-18T23:09:22.763Z,62.30
2023-02-18T23:11:57.656Z,65.82
2023-02-18T23:14:28.391Z,63.10
2023-02-18T23:17:14.064Z,61.45
2023-02-18T23:19:50.970Z,62.63
2023-02-18T23:22:35.800Z,68.50
2023-02-18T23:25:04.311Z,62.83
2023-02-18T23:27:33.002Z,58.92
2023-02-18T23:30:01.448Z,62.20
2023-02-18T23:32:32.445Z,63.42
2023-02-18T23:35:00.922Z,61.83
2023-02-18T23:37:49.980Z,63.88
2023-02-18T23:40:18.463Z,62.85
2023-02-18T23:42:47.261Z,62.88
2023-02-18T23:45:15.845Z,63.28
2023-02-18T23:47:44.634Z,64.43
2023-02-18T23:50:19.390Z,64.03
2023-02-18T23:52:50.308Z,66.35
2023-02-18T23:55:18.930Z,61.55
2023-02-18T23:57:47.854Z,63.13
